sensor_id;sensor_type;location;lat;lon;timestamp;temperature;humidity
20750;DHT22;10535;50.664;4.564;2023-06-04T00:01:54;14.50;99.90
20750;DHT22;10535;50.664;4.564;2023-06-04T00:05:21;14.50;99.90
20750;DHT22;10535;50.664;4.564;2023-06-04T00:08:27;14.40;99.90
20750;DHT22;10535;50.664;4.564;2023-06-04T00:10:55;14.40;99.90
20750;DHT22;10535;50.664;4.564;2023-06-04T00:13:21;14.50;99.90
20750;DHT22;10535;50.664;4.564;2023-06-04T00:16:31;14.40;99.90
20750;DHT22;10535;50.664;4.564;2023-06-04T00:19:40;14.40;99.90
20750;DHT22;10535;50.664;4.564;2023-06-04T00:22:54;14.30;99.90
20750;DHT22;10535;50.664;4.564;2023-06-04T00:26:41;14.30;99.90
20750;DHT22;10535;50.664;4.564;2023-06-04T00:29:29;14.30;99.90
20750;DHT22;10535;50.664;4.564;2023-06-04T00:32:40;14.30;99.90
20750;DHT22;10535;50.664;4.564;2023-06-04T00:35:19;14.30;99.90
20750;DHT22;10535;50.664;4.564;2023-06-04T00:38:25;14.20;99.90
20750;DHT22;10535;50.664;4.564;2023-06-04T00:40:50;14.20;99.90
20750;DHT22;10535;50.664;4.564;2023-06-04T00:43:22;14.20;99.90
20750;DHT22;10535;50.664;4.564;2023-06-04T00:46:23;14.20;99.90
20750;DHT22;10535;50.664;4.564;2023-06-04T00:49:30;14.10;99.90
20750;DHT22;10535;50.664;4.564;2023-06-04T00:52:18;13.90;99.90
20750;DHT22;10535;50.664;4.564;2023-06-04T00:55:10;13.90;99.90
20750;DHT22;10535;50.664;4.564;2023-06-04T00:58:38;13.90;99.90
20750;DHT22;10535;50.664;4.564;2023-06-04T01:02:02;13.80;99.90
20750;DHT22;10535;50.664;4.564;2023-06-04T01:05:51;13.70;99.90
20750;DHT22;10535;50.664;4.564;2023-06-04T01:08:44;13.90;99.90
20750;DHT22;10535;50.664;4.564;2023-06-04T01:11:38;14.10;99.90
20750;DHT22;10535;50.664;4.564;2023-06-04T01:14:10;14.00;99.90
20750;DHT22;10535;50.664;4.564;2023-06-04T01:16:39;13.90;99.90
20750;DHT22;10535;50.664;4.564;2023-06-04T01:22:29;13.60;99.90
20750;DHT22;10535;50.664;4.564;2023-06-04T01:25:04;13.50;99.90
20750;DHT22;10535;50.664;4.564;2023-06-04T01:27:54;13.50;99.90
20750;DHT22;10535;50.664;4.564;2023-06-04T01:31:07;13.40;99.90
20750;DHT22;10535;50.664;4.564;2023-06-04T01:37:09;13.20;99.90
20750;DHT22;10535;50.664;4.564;2023-06-04T01:40:18;13.20;99.90
20750;DHT22;10535;50.664;4.564;2023-06-04T01:43:32;13.10;99.90
20750;DHT22;10535;50.664;4.564;2023-06-04T01:46:24;13.10;99.90
20750;DHT22;10535;50.664;4.564;2023-06-04T01:49:29;13.00;99.90
20750;DHT22;10535;50.664;4.564;2023-06-04T01:52:20;13.10;99.90
20750;DHT22;10535;50.664;4.564;2023-06-04T01:55:45;12.80;99.90
20750;DHT22;10535;50.664;4.564;2023-06-04T01:58:15;12.70;99.90
20750;DHT22;10535;50.664;4.564;2023-06-04T02:01:20;12.60;99.90
20750;DHT22;10535;50.664;4.564;2023-06-04T02:04:18;12.60;99.90
20750;DHT22;10535;50.664;4.564;2023-06-04T02:07:33;12.50;99.90
20750;DHT22;10535;50.664;4.564;2023-06-04T02:10:29;12.50;99.90
20750;DHT22;10535;50.664;4.564;2023-06-04T02:13:37;12.50;99.90
20750;DHT22;10535;50.664;4.564;2023-06-04T02:16:46;12.60;99.90
20750;DHT22;10535;50.664;4.564;2023-06-04T02:19:54;12.70;99.90
20750;DHT22;10535;50.664;4.564;2023-06-04T02:22:43;12.40;99.90
20750;DHT22;10535;50.664;4.564;2023-06-04T02:25:34;12.20;99.90
20750;DHT22;10535;50.664;4.564;2023-06-04T02:28:39;12.20;99.90
20750;DHT22;10535;50.664;4.564;2023-06-04T02:32:08;12.20;99.90
20750;DHT22;10535;50.664;4.564;2023-06-04T02:35:33;12.30;99.90
20750;DHT22;10535;50.664;4.564;2023-06-04T02:38:41;12.10;99.90
20750;DHT22;10535;50.664;4.564;2023-06-04T02:41:46;12.00;99.90
20750;DHT22;10535;50.664;4.564;2023-06-04T02:47:00;11.80;99.90
20750;DHT22;10535;50.664;4.564;2023-06-04T02:49:39;11.70;99.90
20750;DHT22;10535;50.664;4.564;2023-06-04T02:52:44;11.80;99.90
20750;DHT22;10535;50.664;4.564;2023-06-04T02:59:00;11.50;99.90
20750;DHT22;10535;50.664;4.564;2023-06-04T03:02:11;11.60;99.90
20750;DHT22;10535;50.664;4.564;2023-06-04T03:04:37;11.40;99.90
20750;DHT22;10535;50.664;4.564;2023-06-04T03:07:11;11.40;99.90
20750;DHT22;10535;50.664;4.564;2023-06-04T03:13:32;11.30;99.90
20750;DHT22;10535;50.664;4.564;2023-06-04T03:16:22;11.30;99.90
20750;DHT22;10535;50.664;4.564;2023-06-04T03:19:28;11.30;99.90
20750;DHT22;10535;50.664;4.564;2023-06-04T03:21:59;11.30;99.90
20750;DHT22;10535;50.664;4.564;2023-06-04T03:27:22;11.40;99.90
20750;DHT22;10535;50.664;4.564;2023-06-04T03:30:37;11.40;99.90
20750;DHT22;10535;50.664;4.564;2023-06-04T03:37:06;11.30;99.90
20750;DHT22;10535;50.664;4.564;2023-06-04T03:40:14;11.40;99.90
20750;DHT22;10535;50.664;4.564;2023-06-04T03:43:16;11.40;99.90
20750;DHT22;10535;50.664;4.564;2023-06-04T03:49:40;11.50;99.90
20750;DHT22;10535;50.664;4.564;2023-06-04T03:52:51;11.50;99.90
20750;DHT22;10535;50.664;4.564;2023-06-04T03:55:22;11.40;99.90
20750;DHT22;10535;50.664;4.564;2023-06-04T03:58:03;11.30;99.90
20750;DHT22;10535;50.664;4.564;2023-06-04T04:07:16;11.40;99.90
20750;DHT22;10535;50.664;4.564;2023-06-04T04:10:32;11.20;99.90
20750;DHT22;10535;50.664;4.564;2023-06-04T04:12:57;11.20;99.90
20750;DHT22;10535;50.664;4.564;2023-06-04T04:15:50;11.10;99.90
20750;DHT22;10535;50.664;4.564;2023-06-04T04:18:54;11.30;99.90
20750;DHT22;10535;50.664;4.564;2023-06-04T04:22:22;11.20;99.90
20750;DHT22;10535;50.664;4.564;2023-06-04T04:24:53;11.20;99.90
20750;DHT22;10535;50.664;4.564;2023-06-04T04:27:20;11.20;99.90
20750;DHT22;10535;50.664;4.564;2023-06-04T04:29:46;11.20;99.90
20750;DHT22;10535;50.664;4.564;2023-06-04T04:32:20;11.40;99.90
20750;DHT22;10535;50.664;4.564;2023-06-04T04:35:48;11.50;99.90
20750;DHT22;10535;50.664;4.564;2023-06-04T04:38:51;11.50;99.90
20750;DHT22;10535;50.664;4.564;2023-06-04T04:41:52;11.50;99.90
20750;DHT22;10535;50.664;4.564;2023-06-04T04:45:00;11.60;99.90
20750;DHT22;10535;50.664;4.564;2023-06-04T04:47:57;11.60;99.90
20750;DHT22;10535;50.664;4.564;2023-06-04T04:51:28;11.50;99.90
20750;DHT22;10535;50.664;4.564;2023-06-04T04:57:12;11.90;99.90
20750;DHT22;10535;50.664;4.564;2023-06-04T04:59:37;12.10;99.90
20750;DHT22;10535;50.664;4.564;2023-06-04T05:02:31;12.60;99.90
20750;DHT22;10535;50.664;4.564;2023-06-04T05:06:11;13.30;99.90
20750;DHT22;10535;50.664;4.564;2023-06-04T05:09:00;14.00;99.90
20750;DHT22;10535;50.664;4.564;2023-06-04T05:11:47;14.60;99.90
20750;DHT22;10535;50.664;4.564;2023-06-04T05:14:53;15.00;99.90
20750;DHT22;10535;50.664;4.564;2023-06-04T05:17:26;15.40;99.90
20750;DHT22;10535;50.664;4.564;2023-06-04T05:19:56;15.30;99.90
20750;DHT22;10535;50.664;4.564;2023-06-04T05:22:37;15.40;99.90
20750;DHT22;10535;50.664;4.564;2023-06-04T05:25:03;15.50;99.90
20750;DHT22;10535;50.664;4.564;2023-06-04T05:27:29;15.60;99.90
20750;DHT22;10535;50.664;4.564;2023-06-04T05:29:57;15.70;99.90
20750;DHT22;10535;50.664;4.564;2023-06-04T05:32:22;15.80;99.90
20750;DHT22;10535;50.664;4.564;2023-06-04T05:34:48;15.80;99.90
20750;DHT22;10535;50.664;4.564;2023-06-04T05:37:14;16.30;99.90
20750;DHT22;10535;50.664;4.564;2023-06-04T05:39:42;16.30;99.90
20750;DHT22;10535;50.664;4.564;2023-06-04T05:42:08;16.40;99.90
20750;DHT22;10535;50.664;4.564;2023-06-04T05:44:34;16.60;99.90
20750;DHT22;10535;50.664;4.564;2023-06-04T05:47:03;17.10;99.90
20750;DHT22;10535;50.664;4.564;2023-06-04T05:49:29;16.60;99.90
20750;DHT22;10535;50.664;4.564;2023-06-04T05:51:54;16.80;99.90
20750;DHT22;10535;50.664;4.564;2023-06-04T05:54:22;16.80;99.90
20750;DHT22;10535;50.664;4.564;2023-06-04T05:56:47;16.50;99.90
20750;DHT22;10535;50.664;4.564;2023-06-04T05:59:13;16.10;99.90
20750;DHT22;10535;50.664;4.564;2023-06-04T06:01:44;15.60;99.90
20750;DHT22;10535;50.664;4.564;2023-06-04T06:04:11;15.10;99.90
20750;DHT22;10535;50.664;4.564;2023-06-04T06:06:37;15.00;99.90
20750;DHT22;10535;50.664;4.564;2023-06-04T06:09:03;15.00;99.90
20750;DHT22;10535;50.664;4.564;2023-06-04T06:11:28;14.90;99.90
20750;DHT22;10535;50.664;4.564;2023-06-04T06:13:55;14.70;99.90
20750;DHT22;10535;50.664;4.564;2023-06-04T06:16:21;14.70;99.90
20750;DHT22;10535;50.664;4.564;2023-06-04T06:18:48;14.60;99.90
20750;DHT22;10535;50.664;4.564;2023-06-04T06:21:14;15.00;99.90
20750;DHT22;10535;50.664;4.564;2023-06-04T06:23:40;15.40;99.90
20750;DHT22;10535;50.664;4.564;2023-06-04T06:26:07;15.80;99.90
20750;DHT22;10535;50.664;4.564;2023-06-04T06:28:33;16.20;99.90
20750;DHT22;10535;50.664;4.564;2023-06-04T06:31:01;16.30;99.90
20750;DHT22;10535;50.664;4.564;2023-06-04T06:33:27;16.60;99.90
20750;DHT22;10535;50.664;4.564;2023-06-04T06:35:53;16.90;99.90
20750;DHT22;10535;50.664;4.564;2023-06-04T06:38:18;16.80;99.90
20750;DHT22;10535;50.664;4.564;2023-06-04T06:40:44;17.20;99.90
20750;DHT22;10535;50.664;4.564;2023-06-04T06:43:10;17.50;99.90
20750;DHT22;10535;50.664;4.564;2023-06-04T06:45:36;17.40;99.90
20750;DHT22;10535;50.664;4.564;2023-06-04T06:48:02;17.40;99.90
20750;DHT22;10535;50.664;4.564;2023-06-04T06:50:29;17.50;99.90
20750;DHT22;10535;50.664;4.564;2023-06-04T06:52:55;17.70;99.90
20750;DHT22;10535;50.664;4.564;2023-06-04T06:55:20;18.10;99.90
20750;DHT22;10535;50.664;4.564;2023-06-04T06:57:46;18.80;99.90
20750;DHT22;10535;50.664;4.564;2023-06-04T07:00:18;18.70;99.90
20750;DHT22;10535;50.664;4.564;2023-06-04T07:02:55;18.70;99.90
20750;DHT22;10535;50.664;4.564;2023-06-04T07:05:24;18.30;99.90
20750;DHT22;10535;50.664;4.564;2023-06-04T07:08:07;18.70;99.90
20750;DHT22;10535;50.664;4.564;2023-06-04T07:10:36;19.00;99.90
20750;DHT22;10535;50.664;4.564;2023-06-04T07:13:01;19.60;99.90
20750;DHT22;10535;50.664;4.564;2023-06-04T07:15:30;20.10;99.90
20750;DHT22;10535;50.664;4.564;2023-06-04T07:17:55;20.10;99.90
20750;DHT22;10535;50.664;4.564;2023-06-04T07:20:21;20.50;99.90
20750;DHT22;10535;50.664;4.564;2023-06-04T07:23:06;20.10;99.90
20750;DHT22;10535;50.664;4.564;2023-06-04T07:25:34;20.50;99.90
20750;DHT22;10535;50.664;4.564;2023-06-04T07:28:04;20.70;99.90
20750;DHT22;10535;50.664;4.564;2023-06-04T07:30:39;20.20;99.90
20750;DHT22;10535;50.664;4.564;2023-06-04T07:33:06;19.20;99.90
20750;DHT22;10535;50.664;4.564;2023-06-04T07:35:32;18.90;99.90
20750;DHT22;10535;50.664;4.564;2023-06-04T07:37:58;19.50;99.90
20750;DHT22;10535;50.664;4.564;2023-06-04T07:40:53;18.60;99.90
20750;DHT22;10535;50.664;4.564;2023-06-04T07:43:47;18.10;99.90
20750;DHT22;10535;50.664;4.564;2023-06-04T07:46:12;18.10;99.90
20750;DHT22;10535;50.664;4.564;2023-06-04T07:48:38;18.30;99.90
20750;DHT22;10535;50.664;4.564;2023-06-04T07:51:03;18.20;99.90
20750;DHT22;10535;50.664;4.564;2023-06-04T07:53:34;18.10;99.90
20750;DHT22;10535;50.664;4.564;2023-06-04T07:56:02;17.90;99.90
20750;DHT22;10535;50.664;4.564;2023-06-04T07:58:29;17.90;99.90
20750;DHT22;10535;50.664;4.564;2023-06-04T08:00:55;17.80;99.90
20750;DHT22;10535;50.664;4.564;2023-06-04T08:03:21;18.00;99.90
20750;DHT22;10535;50.664;4.564;2023-06-04T08:05:48;17.90;99.90
20750;DHT22;10535;50.664;4.564;2023-06-04T08:08:13;18.20;99.90
20750;DHT22;10535;50.664;4.564;2023-06-04T08:10:39;18.70;99.90
20750;DHT22;10535;50.664;4.564;2023-06-04T08:13:05;18.50;99.90
20750;DHT22;10535;50.664;4.564;2023-06-04T08:15:31;18.50;99.90
20750;DHT22;10535;50.664;4.564;2023-06-04T08:17:57;18.20;99.90
20750;DHT22;10535;50.664;4.564;2023-06-04T08:20:23;18.50;99.90
20750;DHT22;10535;50.664;4.564;2023-06-04T08:22:49;18.20;99.90
20750;DHT22;10535;50.664;4.564;2023-06-04T08:25:14;18.50;99.90
20750;DHT22;10535;50.664;4.564;2023-06-04T08:27:41;18.80;99.90
20750;DHT22;10535;50.664;4.564;2023-06-04T08:30:08;19.20;99.90
20750;DHT22;10535;50.664;4.564;2023-06-04T08:32:34;19.50;99.90
20750;DHT22;10535;50.664;4.564;2023-06-04T08:35:00;19.60;99.90
20750;DHT22;10535;50.664;4.564;2023-06-04T08:37:25;19.10;99.90
20750;DHT22;10535;50.664;4.564;2023-06-04T08:39:51;18.80;99.90
20750;DHT22;10535;50.664;4.564;2023-06-04T08:42:29;18.60;99.90
20750;DHT22;10535;50.664;4.564;2023-06-04T08:44:56;18.80;99.90
20750;DHT22;10535;50.664;4.564;2023-06-04T08:47:24;18.90;99.90
20750;DHT22;10535;50.664;4.564;2023-06-04T08:49:51;18.80;99.90
20750;DHT22;10535;50.664;4.564;2023-06-04T08:52:18;18.90;99.90
20750;DHT22;10535;50.664;4.564;2023-06-04T08:54:49;19.00;99.90
20750;DHT22;10535;50.664;4.564;2023-06-04T08:57:17;19.00;99.90
20750;DHT22;10535;50.664;4.564;2023-06-04T08:59:44;19.00;99.90
20750;DHT22;10535;50.664;4.564;2023-06-04T09:02:11;19.20;99.90
20750;DHT22;10535;50.664;4.564;2023-06-04T09:04:39;19.30;99.90
20750;DHT22;10535;50.664;4.564;2023-06-04T09:07:06;19.30;99.90
20750;DHT22;10535;50.664;4.564;2023-06-04T09:09:37;19.20;99.90
20750;DHT22;10535;50.664;4.564;2023-06-04T09:12:07;19.40;99.90
20750;DHT22;10535;50.664;4.564;2023-06-04T09:14:34;19.50;99.90
20750;DHT22;10535;50.664;4.564;2023-06-04T09:17:00;19.10;99.90
20750;DHT22;10535;50.664;4.564;2023-06-04T09:19:25;19.30;99.90
20750;DHT22;10535;50.664;4.564;2023-06-04T09:21:54;19.30;99.90
20750;DHT22;10535;50.664;4.564;2023-06-04T09:24:22;19.70;99.90
20750;DHT22;10535;50.664;4.564;2023-06-04T09:26:48;19.90;99.90
20750;DHT22;10535;50.664;4.564;2023-06-04T09:29:15;19.80;99.90
20750;DHT22;10535;50.664;4.564;2023-06-04T09:31:41;20.20;99.90
20750;DHT22;10535;50.664;4.564;2023-06-04T09:34:09;20.60;99.90
20750;DHT22;10535;50.664;4.564;2023-06-04T09:36:35;20.50;99.90
20750;DHT22;10535;50.664;4.564;2023-06-04T09:39:15;20.70;99.90
20750;DHT22;10535;50.664;4.564;2023-06-04T09:41:41;20.70;99.90
20750;DHT22;10535;50.664;4.564;2023-06-04T09:44:07;20.60;99.90
20750;DHT22;10535;50.664;4.564;2023-06-04T09:46:36;21.00;99.90
20750;DHT22;10535;50.664;4.564;2023-06-04T09:49:03;20.90;99.90
20750;DHT22;10535;50.664;4.564;2023-06-04T09:51:30;20.80;99.90
20750;DHT22;10535;50.664;4.564;2023-06-04T09:53:58;20.80;99.90
20750;DHT22;10535;50.664;4.564;2023-06-04T09:56:24;20.90;99.90
20750;DHT22;10535;50.664;4.564;2023-06-04T09:58:54;20.80;99.90
20750;DHT22;10535;50.664;4.564;2023-06-04T10:01:23;20.70;99.90
20750;DHT22;10535;50.664;4.564;2023-06-04T10:03:50;20.90;99.90
20750;DHT22;10535;50.664;4.564;2023-06-04T10:06:18;21.20;99.90
20750;DHT22;10535;50.664;4.564;2023-06-04T10:08:45;21.20;99.90
20750;DHT22;10535;50.664;4.564;2023-06-04T10:11:12;21.40;99.90
20750;DHT22;10535;50.664;4.564;2023-06-04T10:13:49;21.40;99.90
20750;DHT22;10535;50.664;4.564;2023-06-04T10:16:19;21.20;99.90
20750;DHT22;10535;50.664;4.564;2023-06-04T10:18:45;21.20;99.90
20750;DHT22;10535;50.664;4.564;2023-06-04T10:21:13;21.00;99.90
20750;DHT22;10535;50.664;4.564;2023-06-04T10:23:39;21.00;99.90
20750;DHT22;10535;50.664;4.564;2023-06-04T10:26:07;21.20;99.90
20750;DHT22;10535;50.664;4.564;2023-06-04T10:28:34;21.70;99.90
20750;DHT22;10535;50.664;4.564;2023-06-04T10:31:00;21.60;99.90
20750;DHT22;10535;50.664;4.564;2023-06-04T10:33:26;21.50;99.90
20750;DHT22;10535;50.664;4.564;2023-06-04T10:35:54;21.30;99.90
20750;DHT22;10535;50.664;4.564;2023-06-04T10:38:21;21.50;99.90
20750;DHT22;10535;50.664;4.564;2023-06-04T10:40:48;21.50;99.90
20750;DHT22;10535;50.664;4.564;2023-06-04T10:43:14;21.50;99.90
20750;DHT22;10535;50.664;4.564;2023-06-04T10:45:44;21.30;99.90
20750;DHT22;10535;50.664;4.564;2023-06-04T10:48:11;21.50;99.90
20750;DHT22;10535;50.664;4.564;2023-06-04T10:50:53;21.70;99.90
20750;DHT22;10535;50.664;4.564;2023-06-04T10:53:19;22.10;99.90
20750;DHT22;10535;50.664;4.564;2023-06-04T10:55:46;21.90;99.90
20750;DHT22;10535;50.664;4.564;2023-06-04T10:58:13;21.90;99.90
20750;DHT22;10535;50.664;4.564;2023-06-04T11:00:41;22.20;99.90
20750;DHT22;10535;50.664;4.564;2023-06-04T11:03:09;22.10;99.90
20750;DHT22;10535;50.664;4.564;2023-06-04T11:05:46;21.60;99.90
20750;DHT22;10535;50.664;4.564;2023-06-04T11:08:13;21.40;99.90
20750;DHT22;10535;50.664;4.564;2023-06-04T11:10:44;21.50;99.90
20750;DHT22;10535;50.664;4.564;2023-06-04T11:13:10;21.50;99.90
20750;DHT22;10535;50.664;4.564;2023-06-04T11:15:45;21.40;99.90
20750;DHT22;10535;50.664;4.564;2023-06-04T11:18:20;21.60;99.90
20750;DHT22;10535;50.664;4.564;2023-06-04T11:20:48;21.90;99.90
20750;DHT22;10535;50.664;4.564;2023-06-04T11:23:15;21.90;99.90
20750;DHT22;10535;50.664;4.564;2023-06-04T11:25:41;21.90;99.90
20750;DHT22;10535;50.664;4.564;2023-06-04T11:28:17;22.00;99.90
20750;DHT22;10535;50.664;4.564;2023-06-04T11:33:23;21.80;99.90
20750;DHT22;10535;50.664;4.564;2023-06-04T11:35:49;21.90;99.90
20750;DHT22;10535;50.664;4.564;2023-06-04T11:38:15;21.90;99.90
20750;DHT22;10535;50.664;4.564;2023-06-04T11:40:40;21.90;99.90
20750;DHT22;10535;50.664;4.564;2023-06-04T11:43:10;21.70;99.90
20750;DHT22;10535;50.664;4.564;2023-06-04T11:45:36;21.90;99.90
20750;DHT22;10535;50.664;4.564;2023-06-04T11:48:04;22.00;99.90
20750;DHT22;10535;50.664;4.564;2023-06-04T11:50:31;22.10;99.90
20750;DHT22;10535;50.664;4.564;2023-06-04T11:52:57;21.90;99.50
20750;DHT22;10535;50.664;4.564;2023-06-04T11:55:23;22.00;99.90
20750;DHT22;10535;50.664;4.564;2023-06-04T11:57:50;22.30;99.90
20750;DHT22;10535;50.664;4.564;2023-06-04T12:00:16;22.50;99.90
20750;DHT22;10535;50.664;4.564;2023-06-04T12:02:56;22.70;99.90
20750;DHT22;10535;50.664;4.564;2023-06-04T12:05:23;22.50;96.70
20750;DHT22;10535;50.664;4.564;2023-06-04T12:08:04;22.50;99.90
20750;DHT22;10535;50.664;4.564;2023-06-04T12:10:37;22.50;99.90
20750;DHT22;10535;50.664;4.564;2023-06-04T12:13:03;22.30;99.20
20750;DHT22;10535;50.664;4.564;2023-06-04T12:15:29;22.60;99.90
20750;DHT22;10535;50.664;4.564;2023-06-04T12:17:54;22.90;98.80
20750;DHT22;10535;50.664;4.564;2023-06-04T12:20:37;22.90;99.20
20750;DHT22;10535;50.664;4.564;2023-06-04T12:23:05;23.30;99.90
20750;DHT22;10535;50.664;4.564;2023-06-04T12:25:32;22.80;97.30
20750;DHT22;10535;50.664;4.564;2023-06-04T12:27:58;22.60;97.30
20750;DHT22;10535;50.664;4.564;2023-06-04T12:30:37;22.50;97.00
20750;DHT22;10535;50.664;4.564;2023-06-04T12:33:03;22.80;99.90
20750;DHT22;10535;50.664;4.564;2023-06-04T12:35:29;22.50;98.40
20750;DHT22;10535;50.664;4.564;2023-06-04T12:37:54;22.20;99.90
20750;DHT22;10535;50.664;4.564;2023-06-04T12:40:20;22.40;99.90
20750;DHT22;10535;50.664;4.564;2023-06-04T12:42:45;22.50;99.90
20750;DHT22;10535;50.664;4.564;2023-06-04T12:45:12;22.40;99.90
20750;DHT22;10535;50.664;4.564;2023-06-04T12:47:39;22.40;99.90
20750;DHT22;10535;50.664;4.564;2023-06-04T12:50:06;22.30;98.90
20750;DHT22;10535;50.664;4.564;2023-06-04T12:52:31;22.70;98.60
20750;DHT22;10535;50.664;4.564;2023-06-04T12:54:57;23.20;98.20
20750;DHT22;10535;50.664;4.564;2023-06-04T12:57:23;23.10;96.10
20750;DHT22;10535;50.664;4.564;2023-06-04T12:59:49;23.50;96.00
20750;DHT22;10535;50.664;4.564;2023-06-04T13:02:14;23.90;97.50
20750;DHT22;10535;50.664;4.564;2023-06-04T13:04:40;24.00;96.60
20750;DHT22;10535;50.664;4.564;2023-06-04T13:07:08;23.50;96.80
20750;DHT22;10535;50.664;4.564;2023-06-04T13:09:33;23.20;97.30
20750;DHT22;10535;50.664;4.564;2023-06-04T13:12:00;22.90;93.80
20750;DHT22;10535;50.664;4.564;2023-06-04T13:14:25;22.90;95.00
20750;DHT22;10535;50.664;4.564;2023-06-04T13:16:51;23.00;97.80
20750;DHT22;10535;50.664;4.564;2023-06-04T13:19:17;23.10;97.70
20750;DHT22;10535;50.664;4.564;2023-06-04T13:21:44;23.40;97.10
20750;DHT22;10535;50.664;4.564;2023-06-04T13:24:10;23.20;96.30
20750;DHT22;10535;50.664;4.564;2023-06-04T13:26:36;23.00;96.70
20750;DHT22;10535;50.664;4.564;2023-06-04T13:29:01;22.70;97.10
20750;DHT22;10535;50.664;4.564;2023-06-04T13:31:27;23.00;95.80
20750;DHT22;10535;50.664;4.564;2023-06-04T13:33:52;23.20;97.00
20750;DHT22;10535;50.664;4.564;2023-06-04T13:36:18;23.60;98.00
20750;DHT22;10535;50.664;4.564;2023-06-04T13:38:44;23.60;96.60
20750;DHT22;10535;50.664;4.564;2023-06-04T13:41:09;23.30;95.40
20750;DHT22;10535;50.664;4.564;2023-06-04T13:43:35;23.10;95.20
20750;DHT22;10535;50.664;4.564;2023-06-04T13:46:01;23.20;96.30
20750;DHT22;10535;50.664;4.564;2023-06-04T13:48:27;23.40;96.50
20750;DHT22;10535;50.664;4.564;2023-06-04T13:50:53;23.20;94.30
20750;DHT22;10535;50.664;4.564;2023-06-04T13:53:18;23.40;94.40
20750;DHT22;10535;50.664;4.564;2023-06-04T13:55:44;23.60;93.30
20750;DHT22;10535;50.664;4.564;2023-06-04T13:58:09;23.50;93.20
20750;DHT22;10535;50.664;4.564;2023-06-04T14:00:36;23.70;94.90
20750;DHT22;10535;50.664;4.564;2023-06-04T14:03:01;23.50;93.70
20750;DHT22;10535;50.664;4.564;2023-06-04T14:05:27;23.40;94.90
20750;DHT22;10535;50.664;4.564;2023-06-04T14:07:53;23.60;95.50
20750;DHT22;10535;50.664;4.564;2023-06-04T14:10:19;24.00;94.30
20750;DHT22;10535;50.664;4.564;2023-06-04T14:12:45;24.10;93.60
20750;DHT22;10535;50.664;4.564;2023-06-04T14:15:11;23.80;93.20
20750;DHT22;10535;50.664;4.564;2023-06-04T14:17:37;23.80;94.30
20750;DHT22;10535;50.664;4.564;2023-06-04T14:20:04;24.00;94.60
20750;DHT22;10535;50.664;4.564;2023-06-04T14:22:37;23.90;92.90
20750;DHT22;10535;50.664;4.564;2023-06-04T14:25:07;23.70;93.60
20750;DHT22;10535;50.664;4.564;2023-06-04T14:27:34;23.40;92.90
20750;DHT22;10535;50.664;4.564;2023-06-04T14:30:03;23.40;93.60
20750;DHT22;10535;50.664;4.564;2023-06-04T14:32:29;23.70;94.10
20750;DHT22;10535;50.664;4.564;2023-06-04T14:34:55;24.00;93.40
20750;DHT22;10535;50.664;4.564;2023-06-04T14:37:21;24.00;92.70
20750;DHT22;10535;50.664;4.564;2023-06-04T14:39:47;24.00;94.00
20750;DHT22;10535;50.664;4.564;2023-06-04T14:42:13;24.00;93.60
20750;DHT22;10535;50.664;4.564;2023-06-04T14:44:39;23.80;92.70
20750;DHT22;10535;50.664;4.564;2023-06-04T14:47:05;24.10;93.20
20750;DHT22;10535;50.664;4.564;2023-06-04T14:49:31;24.10;92.30
20750;DHT22;10535;50.664;4.564;2023-06-04T14:51:56;23.80;93.00
20750;DHT22;10535;50.664;4.564;2023-06-04T14:54:22;23.80;92.80
20750;DHT22;10535;50.664;4.564;2023-06-04T14:56:48;24.20;92.70
20750;DHT22;10535;50.664;4.564;2023-06-04T14:59:13;24.20;92.00
20750;DHT22;10535;50.664;4.564;2023-06-04T15:01:39;24.00;92.20
20750;DHT22;10535;50.664;4.564;2023-06-04T15:04:06;23.90;91.80
20750;DHT22;10535;50.664;4.564;2023-06-04T15:06:32;24.00;92.60
20750;DHT22;10535;50.664;4.564;2023-06-04T15:08:58;24.00;92.00
20750;DHT22;10535;50.664;4.564;2023-06-04T15:11:23;23.70;91.40
20750;DHT22;10535;50.664;4.564;2023-06-04T15:13:49;23.50;91.70
20750;DHT22;10535;50.664;4.564;2023-06-04T15:16:15;23.60;91.30
20750;DHT22;10535;50.664;4.564;2023-06-04T15:18:40;23.60;91.80
20750;DHT22;10535;50.664;4.564;2023-06-04T15:21:06;23.70;91.80
20750;DHT22;10535;50.664;4.564;2023-06-04T15:23:31;23.30;91.10
20750;DHT22;10535;50.664;4.564;2023-06-04T15:25:57;23.30;91.00
20750;DHT22;10535;50.664;4.564;2023-06-04T15:28:23;23.50;92.20
20750;DHT22;10535;50.664;4.564;2023-06-04T15:30:48;23.30;89.70
20750;DHT22;10535;50.664;4.564;2023-06-04T15:33:14;23.50;91.30
20750;DHT22;10535;50.664;4.564;2023-06-04T15:35:41;23.70;91.00
20750;DHT22;10535;50.664;4.564;2023-06-04T15:38:07;23.80;90.90
20750;DHT22;10535;50.664;4.564;2023-06-04T15:40:33;23.60;91.40
20750;DHT22;10535;50.664;4.564;2023-06-04T15:42:58;23.40;90.30
20750;DHT22;10535;50.664;4.564;2023-06-04T15:45:24;23.20;90.60
20750;DHT22;10535;50.664;4.564;2023-06-04T15:47:51;23.20;90.50
20750;DHT22;10535;50.664;4.564;2023-06-04T15:50:16;23.20;90.30
20750;DHT22;10535;50.664;4.564;2023-06-04T15:52:42;23.40;90.40
20750;DHT22;10535;50.664;4.564;2023-06-04T15:55:08;23.60;91.20
20750;DHT22;10535;50.664;4.564;2023-06-04T15:57:33;23.60;90.60
20750;DHT22;10535;50.664;4.564;2023-06-04T15:59:59;23.40;90.00
20750;DHT22;10535;50.664;4.564;2023-06-04T16:02:25;23.40;90.60
20750;DHT22;10535;50.664;4.564;2023-06-04T16:04:51;23.60;90.30
20750;DHT22;10535;50.664;4.564;2023-06-04T16:07:17;23.60;90.80
20750;DHT22;10535;50.664;4.564;2023-06-04T16:09:42;23.80;90.60
20750;DHT22;10535;50.664;4.564;2023-06-04T16:12:08;23.90;91.10
20750;DHT22;10535;50.664;4.564;2023-06-04T16:14:33;23.90;89.40
20750;DHT22;10535;50.664;4.564;2023-06-04T16:16:59;24.00;90.00
20750;DHT22;10535;50.664;4.564;2023-06-04T16:19:25;24.10;89.50
20750;DHT22;10535;50.664;4.564;2023-06-04T16:21:50;24.10;88.80
20750;DHT22;10535;50.664;4.564;2023-06-04T16:24:16;23.80;87.50
20750;DHT22;10535;50.664;4.564;2023-06-04T16:26:42;23.80;87.50
20750;DHT22;10535;50.664;4.564;2023-06-04T16:29:07;23.60;87.30
20750;DHT22;10535;50.664;4.564;2023-06-04T16:31:33;23.40;87.10
20750;DHT22;10535;50.664;4.564;2023-06-04T16:33:59;23.30;88.20
20750;DHT22;10535;50.664;4.564;2023-06-04T16:36:36;23.30;86.90
20750;DHT22;10535;50.664;4.564;2023-06-04T16:39:04;23.40;88.10
20750;DHT22;10535;50.664;4.564;2023-06-04T16:41:30;23.40;87.70
20750;DHT22;10535;50.664;4.564;2023-06-04T16:43:57;23.30;89.70
20750;DHT22;10535;50.664;4.564;2023-06-04T16:46:25;23.40;89.80
20750;DHT22;10535;50.664;4.564;2023-06-04T16:48:51;23.40;85.90
20750;DHT22;10535;50.664;4.564;2023-06-04T16:51:17;23.20;86.30
20750;DHT22;10535;50.664;4.564;2023-06-04T16:53:43;23.20;86.10
20750;DHT22;10535;50.664;4.564;2023-06-04T16:56:08;23.20;87.40